KBYG/BYG METAR and TAF weather

Enter ICAO airport designator
Station Type Date Time Source
KBYG METAR 2018/10/19 14:53 UTC NOAA

KBYG 191453Z AUTO 35013KT 10SM CLR 09/M03 A3035 RMK AO2 SLP263 T00941028 53030


Station Type Date Time Source
KBYG Decoded METAR 2018/10/19 14:53 UTC NOAA

BUFFALO JOHNSON COUNTY AIRPORT , WY, United States (KBYG) 44-23N 106-43W 1497M
Oct 19, 2018 - 10:53 AM EDT / 2018.10.19 1453 UTC
Wind: from the N (350 degrees) at 15 MPH (13 KT):0
Visibility: 10 mile(s):0
Sky conditions: clear
Temperature: 48.9 F (9.4 C)
Dew Point: 27.0 F (-2.8 C)
Relative Humidity: 42%
Pressure (altimeter): 30.35 in. Hg (1027 hPa)
Pressure tendency: 0.09 inches (3.0 hPa) higher than three hours ago
ob: KBYG 191453Z AUTO 35013KT 10SM CLR 09/M03 A3035 RMK AO2 SLP263 T00941028 53030
cycle: 15

Station Type Date Time Source
KBYG TAF UTC NOAA

Error!


Example: see airport list